Time;durP1;ratioP1;P1;durP2;ratioP2;P2;SDS_P1;SDS_P2;PMS_P1;PMS_P2;Temp;Humidity;BMP_temperature;BMP_pressure;BME280_temperature;BME280_humidity;BME280_pressure;Samples;Min_cycle;Max_cycle;Signal;HPM_P1;HPM_P2
2021/03/28 00:00:53;;;;;;;9.43;7.10;;;7.90;99.90;;;;;;5073095;28;20202;-72
2021/03/28 00:03:25;;;;;;;11.70;7.70;;;7.80;99.90;;;;;;5072957;28;20202;-71
2021/03/28 00:05:53;;;;;;;9.60;7.93;;;7.80;99.90;;;;;;5073130;28;20608;-71
2021/03/28 00:08:23;;;;;;;10.70;6.43;;;7.80;99.90;;;;;;5073445;28;20211;-71
2021/03/28 00:10:53;;;;;;;11.23;7.40;;;7.80;99.90;;;;;;5073097;28;20213;-71
2021/03/28 00:13:23;;;;;;;10.63;7.37;;;7.80;99.90;;;;;;5073158;28;20690;-73
2021/03/28 00:16:02;;;;;;;10.40;7.20;;;7.80;99.90;;;;;;5073425;28;20202;-71
2021/03/28 00:18:34;;;;;;;11.50;7.50;;;7.80;99.90;;;;;;5073257;28;20627;-72
2021/03/28 00:21:09;;;;;;;13.20;7.60;;;7.90;99.90;;;;;;5073300;28;20240;-71
2021/03/28 00:23:45;;;;;;;13.73;8.60;;;7.80;99.90;;;;;;5072756;28;20256;-71
2021/03/28 00:26:24;;;;;;;16.13;7.60;;;7.80;99.90;;;;;;5073131;28;20205;-72
2021/03/28 00:29:04;;;;;;;11.17;8.43;;;7.70;99.90;;;;;;5072683;28;20205;-72
2021/03/28 00:31:32;;;;;;;8.93;7.03;;;7.70;99.90;;;;;;5073200;28;20334;-71
2021/03/28 00:34:09;;;;;;;8.07;6.37;;;7.60;99.90;;;;;;5073264;28;20206;-71
2021/03/28 00:36:42;;;;;;;12.30;6.33;;;7.60;99.90;;;;;;5072245;28;20202;-72
2021/03/28 00:39:11;;;;;;;10.00;6.50;;;7.50;99.90;;;;;;5072706;28;20592;-72
2021/03/28 00:41:56;;;;;;;8.50;6.57;;;7.60;99.90;;;;;;5072507;28;20202;-72
2021/03/28 00:44:24;;;;;;;14.17;6.10;;;7.50;99.90;;;;;;5072690;28;20257;-72
2021/03/28 00:46:57;;;;;;;13.57;6.50;;;7.40;99.90;;;;;;5072256;28;20206;-71
2021/03/28 00:49:27;;;;;;;9.03;7.03;;;7.40;99.90;;;;;;5072871;28;20210;-72
2021/03/28 00:51:57;;;;;;;12.83;7.63;;;7.20;99.90;;;;;;5072242;28;21170;-71
2021/03/28 00:54:37;;;;;;;9.73;7.37;;;7.40;99.90;;;;;;5072700;28;20678;-72
2021/03/28 00:57:14;;;;;;;9.47;7.63;;;7.30;99.90;;;;;;5072482;28;20202;-72
2021/03/28 00:59:53;;;;;;;9.40;6.70;;;7.30;99.90;;;;;;5071974;28;20210;-71
2021/03/28 01:02:26;;;;;;;9.67;6.97;;;7.30;99.90;;;;;;5059477;28;20255;-72
2021/03/28 01:05:22;;;;;;;11.60;6.30;;;7.30;99.90;;;;;;5071933;28;20229;-72
2021/03/28 01:07:56;;;;;;;10.17;6.63;;;7.30;99.90;;;;;;5072218;28;20213;-71
2021/03/28 01:10:51;;;;;;;10.23;7.10;;;7.30;99.90;;;;;;5071553;28;20210;-71
2021/03/28 01:13:44;;;;;;;14.23;9.43;;;7.30;99.90;;;;;;5072361;28;20578;-71
2021/03/28 01:16:49;;;;;;;11.70;8.43;;;7.30;99.90;;;;;;5061406;28;20232;-71
2021/03/28 01:19:33;;;;;;;15.57;9.80;;;7.20;99.90;;;;;;5058837;28;20565;-71
2021/03/28 01:22:07;;;;;;;12.70;8.57;;;7.10;99.90;;;;;;5072326;28;20206;-71
2021/03/28 01:24:40;;;;;;;11.20;7.03;;;7.10;99.90;;;;;;5071458;28;20778;-71
2021/03/28 01:27:25;;;;;;;16.03;8.63;;;7.00;99.90;;;;;;5071605;28;20210;-71
2021/03/28 01:29:55;;;;;;;9.40;6.53;;;7.00;99.90;;;;;;5071498;28;20214;-70
2021/03/28 01:32:29;;;;;;;13.67;6.83;;;7.00;99.90;;;;;;5071818;28;20283;-69
2021/03/28 01:35:00;;;;;;;12.10;8.03;;;6.90;99.90;;;;;;5071235;28;20248;-69
2021/03/28 01:37:31;;;;;;;8.67;5.67;;;7.00;99.90;;;;;;5071541;28;20674;-72
2021/03/28 01:40:09;;;;;;;12.87;6.97;;;7.00;99.90;;;;;;5071908;28;20208;-72
2021/03/28 01:42:53;;;;;;;12.93;8.93;;;7.00;99.90;;;;;;5071159;28;20206;-68
2021/03/28 01:45:28;;;;;;;16.07;7.97;;;6.90;99.90;;;;;;5071657;28;20214;-72
2021/03/28 01:48:13;;;;;;;10.97;7.77;;;6.90;99.90;;;;;;5070605;28;20742;-67
2021/03/28 01:51:04;;;;;;;12.70;7.70;;;6.90;99.90;;;;;;5071337;28;20210;-71
2021/03/28 01:53:44;;;;;;;9.80;7.37;;;6.80;99.90;;;;;;5071482;28;20202;-70
2021/03/28 01:56:19;;;;;;;16.10;7.80;;;6.70;99.90;;;;;;5071186;28;20206;-70
2021/03/28 01:59:06;;;;;;;11.27;8.10;;;6.80;99.90;;;;;;5056945;28;20201;-70
2021/03/28 02:01:43;;;;;;;7.93;6.40;;;6.80;99.90;;;;;;5071511;28;20217;-71
2021/03/28 02:04:33;;;;;;;11.97;7.00;;;6.70;99.90;;;;;;5070942;28;20218;-71
2021/03/28 02:07:12;;;;;;;13.13;6.87;;;6.70;99.90;;;;;;5071509;28;20202;-71
2021/03/28 02:09:48;;;;;;;11.73;7.50;;;6.60;99.90;;;;;;5070843;28;20726;-71
2021/03/28 02:12:20;;;;;;;11.23;6.40;;;6.60;99.90;;;;;;5070535;28;20197;-71
2021/03/28 02:15:02;;;;;;;8.23;6.90;;;6.60;99.90;;;;;;5070904;28;20214;-71
2021/03/28 02:17:41;;;;;;;12.50;7.33;;;6.60;99.90;;;;;;5057224;28;20293;-71
2021/03/28 02:20:15;;;;;;;14.03;9.23;;;6.50;99.90;;;;;;5070861;28;20578;-71
2021/03/28 02:22:47;;;;;;;11.43;8.63;;;6.30;99.90;;;;;;5069982;28;20255;-71
2021/03/28 02:25:19;;;;;;;13.20;8.83;;;6.40;99.90;;;;;;5070751;28;20233;-71
2021/03/28 02:27:51;;;;;;;13.37;7.13;;;6.40;99.90;;;;;;5070529;28;20213;-71
2021/03/28 02:30:29;;;;;;;10.57;7.37;;;6.20;99.90;;;;;;5070682;28;20256;-71
2021/03/28 02:33:13;;;;;;;12.00;7.70;;;6.50;99.90;;;;;;5070315;28;20216;-71
2021/03/28 02:36:14;;;;;;;13.27;7.47;;;6.40;99.90;;;;;;5070405;28;20260;-71
2021/03/28 02:39:21;;;;;;;11.63;7.53;;;6.20;99.90;;;;;;5055321;28;20215;-70
2021/03/28 02:42:07;;;;;;;10.07;6.63;;;6.40;99.90;;;;;;5056392;28;20197;-71
2021/03/28 02:44:48;;;;;;;10.23;7.03;;;6.20;99.90;;;;;;5070268;28;20218;-71
2021/03/28 02:47:29;;;;;;;10.70;7.73;;;6.30;99.90;;;;;;5070802;28;20552;-72
2021/03/28 02:50:21;;;;;;;11.27;6.13;;;6.30;99.90;;;;;;5070289;28;20666;-72
2021/03/28 02:53:00;;;;;;;9.67;6.83;;;6.10;99.90;;;;;;5070344;28;20203;-73
2021/03/28 02:55:44;;;;;;;14.23;7.37;;;6.30;99.90;;;;;;5057063;28;20205;-72
2021/03/28 02:58:38;;;;;;;10.63;6.77;;;6.20;99.90;;;;;;5070152;28;20209;-72
2021/03/28 03:01:24;;;;;;;12.53;6.77;;;6.00;99.90;;;;;;5070316;28;20686;-71
2021/03/28 03:04:07;;;;;;;9.70;6.90;;;6.20;99.90;;;;;;5069886;28;20259;-72
2021/03/28 03:06:57;;;;;;;7.37;6.67;;;6.00;99.90;;;;;;5069911;28;20661;-72
2021/03/28 03:09:32;;;;;;;11.00;6.00;;;6.00;99.90;;;;;;5070360;28;20213;-72
2021/03/28 03:12:22;;;;;;;8.67;6.53;;;6.20;99.90;;;;;;5070767;28;20202;-71
2021/03/28 03:15:12;;;;;;;8.53;5.67;;;6.00;99.90;;;;;;5068248;28;20202;-72
2021/03/28 03:18:37;;;;;;;12.20;7.47;;;6.20;99.90;;;;;;5057031;28;20619;-71
2021/03/28 03:21:39;;;;;;;8.97;6.13;;;6.10;99.90;;;;;;5057946;28;20232;-71
2021/03/28 03:24:37;;;;;;;7.30;5.63;;;6.10;99.90;;;;;;5069571;28;20255;-71
2021/03/28 03:27:48;;;;;;;7.17;6.43;;;6.20;99.90;;;;;;5070185;28;20206;-72
2021/03/28 03:30:51;;;;;;;10.47;5.67;;;6.00;99.90;;;;;;5070506;28;20210;-71
2021/03/28 03:33:47;;;;;;;12.17;5.90;;;6.00;99.90;;;;;;5051930;28;20202;-72
2021/03/28 03:36:32;;;;;;;9.07;5.93;;;6.00;99.90;;;;;;5051315;28;20210;-72
2021/03/28 03:39:14;;;;;;;8.77;5.97;;;5.90;99.90;;;;;;5073981;28;20214;-72
2021/03/28 03:42:19;;;;;;;7.80;6.03;;;6.00;99.90;;;;;;5073572;28;20205;-72
2021/03/28 03:45:15;;;;;;;9.17;5.47;;;5.90;99.90;;;;;;5066910;28;20233;-71
2021/03/28 03:47:53;;;;;;;12.60;6.37;;;5.70;99.90;;;;;;5064754;28;20214;-71
2021/03/28 03:50:33;;;;;;;8.57;6.03;;;5.70;99.90;;;;;;5073872;28;20673;-71
2021/03/28 03:53:19;;;;;;;9.67;6.00;;;5.70;99.90;;;;;;5073937;28;20240;-71
2021/03/28 03:56:00;;;;;;;7.67;5.23;;;5.70;99.90;;;;;;5073320;28;20681;-71
2021/03/28 03:58:33;;;;;;;9.57;5.70;;;5.80;99.90;;;;;;5073521;28;20616;-71
2021/03/28 04:01:18;;;;;;;6.63;4.87;;;5.70;99.90;;;;;;5074349;28;20579;-71
2021/03/28 04:03:56;;;;;;;8.60;4.80;;;5.60;99.90;;;;;;5073180;28;20584;-71
2021/03/28 04:06:42;;;;;;;6.67;5.43;;;5.60;99.90;;;;;;5073751;28;20224;-71
2021/03/28 04:09:18;;;;;;;10.47;5.50;;;5.50;99.90;;;;;;5060706;28;20198;-71
2021/03/28 04:12:17;;;;;;;7.10;5.23;;;5.50;99.90;;;;;;5072770;28;20259;-72
2021/03/28 04:15:06;;;;;;;7.67;5.30;;;5.60;99.90;;;;;;5073303;28;20206;-72
2021/03/28 04:17:51;;;;;;;9.73;5.57;;;5.60;99.90;;;;;;5073609;28;20293;-71
2021/03/28 04:20:27;;;;;;;8.43;5.30;;;5.60;99.90;;;;;;5073308;28;20206;-71
2021/03/28 04:23:21;;;;;;;7.73;4.83;;;5.60;99.90;;;;;;5072771;28;20251;-71
2021/03/28 04:25:59;;;;;;;7.90;5.73;;;5.60;99.90;;;;;;5070799;28;20251;-71
2021/03/28 04:28:51;;;;;;;8.63;5.10;;;5.60;99.90;;;;;;5072810;28;20700;-71
2021/03/28 04:31:48;;;;;;;8.30;5.07;;;5.60;99.90;;;;;;5059486;28;20240;-71
2021/03/28 04:34:18;;;;;;;10.27;5.30;;;5.50;99.90;;;;;;5069363;28;20217;-72
2021/03/28 04:36:56;;;;;;;9.87;5.63;;;5.50;99.90;;;;;;5072394;28;20202;-71
2021/03/28 04:39:55;;;;;;;6.63;4.87;;;5.60;99.90;;;;;;5072827;28;20214;-71
2021/03/28 04:42:55;;;;;;;7.73;4.97;;;5.50;99.90;;;;;;5073105;28;20207;-72
2021/03/28 04:45:56;;;;;;;9.87;4.63;;;5.40;99.90;;;;;;5059540;28;20636;-72
2021/03/28 04:48:59;;;;;;;7.30;4.83;;;5.40;99.90;;;;;;5060027;28;20616;-71
2021/03/28 04:52:08;;;;;;;10.40;5.10;;;5.40;99.90;;;;;;5072253;28;20216;-71
2021/03/28 04:55:22;;;;;;;9.57;5.23;;;5.40;99.90;;;;;;5072436;28;20597;-71
2021/03/28 04:58:10;;;;;;;7.57;5.10;;;5.30;99.90;;;;;;5064229;28;20210;-71
2021/03/28 05:00:57;;;;;;;12.10;5.90;;;5.20;99.90;;;;;;5058991;28;20233;-72
2021/03/28 05:04:02;;;;;;;7.10;5.20;;;5.10;99.90;;;;;;5072446;28;20209;-71
2021/03/28 05:07:29;;;;;;;10.10;5.27;;;5.00;99.90;;;;;;5033909;28;20218;-70
2021/03/28 05:10:37;;;;;;;6.87;4.87;;;5.20;99.90;;;;;;5065768;28;20216;-72
2021/03/28 05:13:34;;;;;;;12.83;7.03;;;5.10;99.90;;;;;;5025424;28;20230;-71
2021/03/28 05:16:43;;;;;;;5.23;4.03;;;4.90;99.90;;;;;;5060633;28;20562;-71
2021/03/28 05:19:39;;;;;;;9.57;4.60;;;4.90;99.90;;;;;;5071816;28;20198;-71
2021/03/28 05:22:45;;;;;;;7.20;4.53;;;5.00;99.90;;;;;;5071882;28;20214;-70
2021/03/28 05:25:34;;;;;;;9.07;5.20;;;4.90;99.90;;;;;;5072096;28;20229;-71
2021/03/28 05:28:33;;;;;;;10.60;4.77;;;4.90;99.90;;;;;;5060852;28;20202;-70
2021/03/28 05:31:30;;;;;;;7.20;3.80;;;5.00;99.90;;;;;;5054716;28;20256;-70
2021/03/28 05:34:26;;;;;;;7.73;5.00;;;5.10;99.90;;;;;;5069544;28;20210;-71
2021/03/28 05:37:25;;;;;;;7.73;4.23;;;5.10;99.90;;;;;;5069719;28;20381;-70
2021/03/28 05:40:16;;;;;;;6.03;4.60;;;5.10;99.90;;;;;;5036150;28;20731;-71
2021/03/28 05:43:12;;;;;;;6.17;4.70;;;5.20;99.90;;;;;;5071359;28;20202;-71
2021/03/28 05:46:03;;;;;;;11.03;5.30;;;5.20;99.90;;;;;;5070978;28;20225;-70
2021/03/28 05:49:05;;;;;;;6.07;4.83;;;5.20;99.90;;;;;;5071460;28;20635;-71
2021/03/28 05:51:56;;;;;;;5.53;5.00;;;5.20;99.90;;;;;;5071401;28;20293;-70
2021/03/28 05:55:05;;;;;;;9.30;4.63;;;5.30;99.90;;;;;;5071617;28;20214;-71
2021/03/28 05:58:08;;;;;;;7.47;5.07;;;5.20;99.90;;;;;;5060760;28;20263;-71
2021/03/28 06:01:06;;;;;;;6.00;4.33;;;5.30;99.90;;;;;;5057698;28;20238;-71
2021/03/28 06:04:18;;;;;;;5.87;3.77;;;5.40;99.90;;;;;;5069834;28;20205;-71
2021/03/28 06:07:23;;;;;;;9.27;5.77;;;5.40;99.90;;;;;;5067986;28;20206;-71
2021/03/28 06:10:27;;;;;;;10.30;4.73;;;5.30;99.90;;;;;;5070244;28;20242;-70
2021/03/28 06:13:18;;;;;;;12.90;4.87;;;5.50;99.90;;;;;;5065126;28;20213;-70
2021/03/28 06:16:13;;;;;;;9.00;4.13;;;5.50;99.90;;;;;;5060608;28;20264;-70
2021/03/28 06:19:19;;;;;;;9.20;5.13;;;5.60;99.90;;;;;;5070238;28;20198;-70
2021/03/28 06:22:33;;;;;;;10.33;5.07;;;5.60;99.90;;;;;;5070476;28;20202;-70
2021/03/28 06:25:49;;;;;;;10.17;5.53;;;5.70;99.90;;;;;;5066983;28;20251;-70
2021/03/28 06:29:02;;;;;;;4.93;4.43;;;5.80;99.90;;;;;;5065536;28;20213;-70
2021/03/28 06:32:07;;;;;;;8.37;5.80;;;5.90;99.90;;;;;;5052883;28;20267;-72
2021/03/28 06:35:22;;;;;;;8.43;5.13;;;6.50;99.90;;;;;;5059623;28;20689;-72
2021/03/28 06:38:27;;;;;;;5.57;5.07;;;7.10;99.90;;;;;;5070326;28;20217;-72
2021/03/28 06:41:45;;;;;;;8.13;5.80;;;7.40;99.90;;;;;;5070627;28;20218;-73
2021/03/28 06:44:30;;;;;;;11.77;4.50;;;7.30;99.90;;;;;;5000980;28;20208;-72
2021/03/28 06:47:29;;;;;;;10.63;6.53;;;7.60;99.90;;;;;;5050732;28;20216;-71
2021/03/28 06:50:53;;;;;;;11.77;4.67;;;7.30;99.90;;;;;;5069863;28;20202;-71
2021/03/28 06:54:08;;;;;;;11.47;5.17;;;6.90;99.90;;;;;;5070513;28;20558;-71
2021/03/28 06:57:20;;;;;;;10.23;5.43;;;6.70;99.90;;;;;;5060816;28;20209;-70
2021/03/28 07:00:09;;;;;;;8.27;5.27;;;6.80;99.90;;;;;;5064722;28;20213;-71
2021/03/28 07:03:19;;;;;;;12.23;5.60;;;6.80;99.90;;;;;;5068712;28;20727;-71
2021/03/28 07:05:52;;;;;;;10.13;5.07;;;7.10;99.90;;;;;;5066229;28;20237;-71
2021/03/28 07:08:43;;;;;;;7.77;4.63;;;7.30;99.90;;;;;;5065935;28;20199;-71
2021/03/28 07:11:52;;;;;;;12.03;5.23;;;7.30;99.90;;;;;;5067806;28;20202;-73
2021/03/28 07:14:54;;;;;;;11.53;4.83;;;7.40;99.90;;;;;;5013911;28;20307;-71
2021/03/28 07:17:58;;;;;;;9.83;5.07;;;7.40;99.90;;;;;;5069202;28;20206;-70
2021/03/28 07:21:06;;;;;;;6.80;4.50;;;7.60;99.90;;;;;;5070089;28;20229;-71
2021/03/28 07:24:23;;;;;;;7.77;4.90;;;7.50;99.90;;;;;;5069584;28;20205;-68
2021/03/28 07:27:08;;;;;;;11.30;5.07;;;7.50;99.90;;;;;;5066041;28;20210;-68
2021/03/28 07:30:08;;;;;;;7.73;4.83;;;7.80;99.90;;;;;;5064406;28;20570;-70
2021/03/28 07:33:04;;;;;;;10.83;4.87;;;8.00;99.90;;;;;;5077734;28;20225;-69
2021/03/28 07:35:56;;;;;;;5.63;4.70;;;8.00;99.90;;;;;;5056996;28;20666;-71
2021/03/28 07:39:08;;;;;;;9.13;5.43;;;8.00;99.90;;;;;;5068866;28;20206;-69
2021/03/28 07:41:57;;;;;;;10.60;4.70;;;8.20;99.90;;;;;;5068929;28;20689;-69
2021/03/28 07:44:59;;;;;;;8.33;4.17;;;8.70;99.90;;;;;;5069422;28;20205;-69
2021/03/28 07:48:15;;;;;;;8.27;4.13;;;9.10;99.90;;;;;;5065934;28;20210;-70
2021/03/28 07:51:10;;;;;;;10.83;5.10;;;9.10;99.90;;;;;;5069170;28;20206;-70
2021/03/28 07:54:10;;;;;;;7.83;4.87;;;9.20;99.90;;;;;;5068485;28;20202;-69
2021/03/28 07:57:10;;;;;;;5.93;4.73;;;9.30;99.90;;;;;;5067501;28;20213;-70
2021/03/28 07:59:55;;;;;;;6.97;4.50;;;9.20;99.90;;;;;;5046730;28;20762;-70
2021/03/28 08:03:09;;;;;;;8.57;5.37;;;9.40;99.90;;;;;;5069256;28;20234;-71
2021/03/28 08:05:57;;;;;;;5.83;4.63;;;9.60;99.90;;;;;;5056693;28;20222;-70
2021/03/28 08:08:57;;;;;;;6.70;4.97;;;9.60;99.90;;;;;;5069256;28;20198;-69
2021/03/28 08:11:42;;;;;;;11.13;4.87;;;10.00;99.90;;;;;;5069505;28;20218;-69
2021/03/28 08:14:37;;;;;;;5.73;4.60;;;10.30;99.90;;;;;;5068697;28;20632;-70
2021/03/28 08:17:15;;;;;;;9.10;3.43;;;10.30;99.90;;;;;;5068651;28;20198;-71
2021/03/28 08:20:06;;;;;;;7.13;4.77;;;10.30;99.90;;;;;;5069188;28;20249;-70
2021/03/28 08:22:46;;;;;;;10.33;4.80;;;10.40;99.90;;;;;;5072885;28;20251;-70
2021/03/28 08:25:41;;;;;;;8.67;4.60;;;10.50;99.90;;;;;;5073264;28;20276;-70
2021/03/28 08:28:46;;;;;;;6.60;3.90;;;10.70;99.90;;;;;;5070761;28;20240;-70
2021/03/28 08:31:21;;;;;;;6.33;4.10;;;11.10;99.90;;;;;;5058629;28;20734;-70
2021/03/28 08:34:29;;;;;;;6.27;3.83;;;11.50;99.90;;;;;;5072466;28;20206;-70
2021/03/28 08:37:14;;;;;;;8.10;4.20;;;12.30;99.90;;;;;;5072494;28;20213;-69
2021/03/28 08:39:57;;;;;;;6.33;3.63;;;12.10;99.90;;;;;;5072431;28;20284;-70
2021/03/28 08:42:43;;;;;;;5.60;3.70;;;12.90;99.90;;;;;;5072874;28;20209;-70
2021/03/28 08:45:25;;;;;;;6.07;3.40;;;12.30;99.90;;;;;;5072523;28;20283;-70
2021/03/28 08:48:27;;;;;;;7.97;3.17;;;12.20;99.90;;;;;;5072131;28;20214;-71
2021/03/28 08:51:06;;;;;;;5.90;3.17;;;12.40;99.90;;;;;;5072187;28;20202;-70
2021/03/28 08:53:51;;;;;;;5.63;3.27;;;12.80;99.90;;;;;;5072639;28;20202;-71
2021/03/28 08:56:50;;;;;;;5.80;2.70;;;12.90;99.90;;;;;;5071848;28;20296;-70
2021/03/28 08:59:21;;;;;;;7.30;3.50;;;12.90;99.90;;;;;;5069094;28;20206;-71
2021/03/28 09:01:54;;;;;;;6.37;2.40;;;13.10;99.90;;;;;;5072002;28;20233;-71
2021/03/28 09:04:40;;;;;;;2.73;2.20;;;14.00;99.90;;;;;;5072167;28;20210;-71
2021/03/28 09:07:14;;;;;;;4.87;2.20;;;14.70;99.90;;;;;;5072084;28;20241;-71
2021/03/28 09:09:52;;;;;;;4.73;2.50;;;14.80;99.90;;;;;;5071691;28;20202;-71
2021/03/28 09:12:40;;;;;;;4.03;2.28;;;14.90;99.90;;;;;;5072065;28;20198;-71
2021/03/28 09:15:32;;;;;;;2.78;2.30;;;15.40;99.90;;;;;;5071847;28;20622;-71
2021/03/28 09:18:14;;;;;;;3.40;2.20;;;15.50;99.90;;;;;;5072035;28;20213;-71
2021/03/28 09:20:55;;;;;;;5.18;1.70;;;14.90;99.90;;;;;;5071405;28;20204;-71
2021/03/28 09:23:40;;;;;;;4.78;1.95;;;19.40;99.90;;;;;;5072135;28;20217;-71
2021/03/28 09:26:34;;;;;;;4.65;2.75;;;21.40;99.90;;;;;;5066444;28;20275;-71
2021/03/28 09:29:17;;;;;;;5.93;2.20;;;20.70;99.90;;;;;;5066994;28;20206;-71
2021/03/28 09:31:54;;;;;;;5.45;2.63;;;21.10;99.90;;;;;;5071260;28;20727;-71
2021/03/28 09:34:42;;;;;;;6.53;2.72;;;22.80;99.90;;;;;;5071350;28;20209;-71
2021/03/28 09:37:18;;;;;;;6.82;3.08;;;23.30;99.90;;;;;;5071745;28;20244;-72
2021/03/28 09:39:56;;;;;;;25.08;22.65;;;22.50;99.90;;;;;;5071192;28;20620;-71
2021/03/28 09:42:54;;;;;;;5.97;4.53;;;23.30;99.90;;;;;;5070751;28;20635;-71
2021/03/28 09:45:57;;;;;;;4.85;3.10;;;24.80;99.90;;;;;;5071815;28;20214;-71
2021/03/28 09:48:47;;;;;;;4.15;2.53;;;25.30;99.90;;;;;;5071380;28;20213;-71
2021/03/28 09:51:49;;;;;;;3.95;2.90;;;22.60;99.90;;;;;;5071427;28;20217;-71
2021/03/28 09:54:43;;;;;;;7.28;2.28;;;22.20;99.90;;;;;;5062532;28;20208;-71
2021/03/28 09:57:33;;;;;;;4.70;2.60;;;22.20;99.90;;;;;;5071388;28;20202;-71
2021/03/28 10:00:29;;;;;;;7.28;2.70;;;23.20;99.90;;;;;;5071416;28;20681;-71
2021/03/28 10:03:11;;;;;;;5.13;2.83;;;24.50;99.90;;;;;;5071029;28;20206;-71
2021/03/28 10:05:39;;;;;;;5.95;2.95;;;25.70;99.90;;;;;;5071028;28;20217;-70
2021/03/28 10:08:09;;;;;;;3.90;2.75;;;24.50;99.90;;;;;;5071142;28;20206;-72
2021/03/28 10:10:54;;;;;;;4.03;2.45;;;24.60;99.90;;;;;;5070236;28;20198;-72
2021/03/28 10:13:38;;;;;;;5.13;2.25;;;22.70;99.90;;;;;;5071266;28;20213;-72
2021/03/28 10:16:17;;;;;;;70.40;62.88;;;23.00;99.90;;;;;;5059688;28;20202;-72
2021/03/28 10:19:04;;;;;;;8.63;4.85;;;23.20;99.90;;;;;;5070292;28;20241;-72
2021/03/28 10:21:44;;;;;;;4.38;3.20;;;23.70;99.90;;;;;;5069554;28;20268;-73
2021/03/28 10:24:37;;;;;;;4.65;2.63;;;23.90;99.90;;;;;;5070953;28;20198;-73
2021/03/28 10:27:36;;;;;;;3.63;1.98;;;25.10;99.90;;;;;;5070420;28;20213;-73
2021/03/28 10:30:17;;;;;;;5.30;2.95;;;24.20;99.90;;;;;;5067282;28;20678;-73
2021/03/28 10:32:56;;;;;;;5.72;2.85;;;23.40;99.90;;;;;;5070235;28;20198;-73
2021/03/28 10:36:02;;;;;;;6.15;2.22;;;23.40;99.90;;;;;;5070458;28;20210;-73
2021/03/28 10:39:11;;;;;;;5.88;2.75;;;18.60;99.90;;;;;;5063150;28;20206;-72
2021/03/28 10:41:47;;;;;;;4.47;2.42;;;18.00;99.90;;;;;;5042352;28;20727;-73
2021/03/28 10:44:31;;;;;;;4.63;2.33;;;17.70;99.90;;;;;;5068496;28;20202;-73
2021/03/28 10:47:45;;;;;;;4.47;2.05;;;17.20;99.90;;;;;;5059929;28;20690;-72
2021/03/28 10:50:57;;;;;;;5.20;1.90;;;17.20;99.90;;;;;;5069129;28;20213;-72
2021/03/28 10:54:08;;;;;;;7.57;2.08;;;17.20;99.90;;;;;;5051327;28;20213;-72
2021/03/28 10:56:56;;;;;;;4.25;1.73;;;17.40;99.90;;;;;;5050365;28;20217;-72
2021/03/28 10:59:56;;;;;;;3.85;2.35;;;17.60;99.90;;;;;;5068463;28;20213;-72
2021/03/28 11:03:13;;;;;;;12.45;2.97;;;17.50;99.90;;;;;;5061389;28;20566;-72
2021/03/28 11:06:13;;;;;;;4.70;1.92;;;17.60;99.90;;;;;;5051295;28;20241;-73
2021/03/28 11:08:58;;;;;;;6.97;1.95;;;17.80;99.90;;;;;;5069002;28;20193;-73
2021/03/28 11:12:01;;;;;;;2.53;1.70;;;17.80;99.90;;;;;;5070315;28;20206;-72
2021/03/28 11:14:48;;;;;;;2.47;1.73;;;17.90;99.90;;;;;;5062880;28;20214;-73
2021/03/28 11:17:51;;;;;;;5.95;2.47;;;17.90;99.90;;;;;;5070258;28;20281;-73
2021/03/28 11:20:26;;;;;;;4.25;2.28;;;18.00;99.90;;;;;;5069981;28;20217;-73
2021/03/28 11:23:48;;;;;;;3.25;1.85;;;18.00;99.90;;;;;;5069770;28;20665;-72
2021/03/28 11:26:52;;;;;;;3.97;1.63;;;17.90;99.90;;;;;;5019372;28;20731;-74
2021/03/28 11:29:50;;;;;;;3.97;1.55;;;17.80;99.90;;;;;;5028087;28;20718;-73
2021/03/28 11:32:24;;;;;;;2.38;1.27;;;18.10;99.90;;;;;;5066070;28;20289;-73
2021/03/28 11:35:05;;;;;;;5.43;2.42;;;18.20;99.90;;;;;;5069709;28;20201;-73
2021/03/28 11:37:41;;;;;;;3.17;1.90;;;17.80;99.90;;;;;;5070254;28;20218;-73
2021/03/28 11:40:32;;;;;;;5.30;1.95;;;17.80;99.90;;;;;;5060938;28;20216;-74
2021/03/28 11:43:38;;;;;;;4.18;2.05;;;17.60;99.90;;;;;;5069892;28;20624;-73
2021/03/28 11:46:27;;;;;;;3.63;2.03;;;18.00;99.90;;;;;;5069658;28;20233;-72
2021/03/28 11:49:11;;;;;;;3.58;1.90;;;18.40;99.90;;;;;;5058291;28;20213;-72
2021/03/28 11:52:22;;;;;;;5.22;1.40;;;18.40;99.90;;;;;;5065341;28;20669;-73
2021/03/28 11:55:22;;;;;;;4.05;1.75;;;18.50;99.90;;;;;;5067507;28;20202;-75
2021/03/28 11:58:08;;;;;;;4.32;2.20;;;18.50;99.90;;;;;;5050077;28;20202;-74
2021/03/28 12:00:43;;;;;;;3.35;2.08;;;18.10;99.90;;;;;;5073245;28;20221;-74
2021/03/28 12:03:33;;;;;;;4.47;2.13;;;18.50;99.90;;;;;;5073313;28;20198;-72
2021/03/28 12:06:03;;;;;;;3.95;1.42;;;18.50;99.90;;;;;;5073732;28;20267;-71
2021/03/28 12:08:32;;;;;;;3.58;2.40;;;18.70;99.90;;;;;;5073662;28;20202;-72
2021/03/28 12:11:35;;;;;;;2.50;1.48;;;19.10;99.90;;;;;;5073269;28;20665;-72
2021/03/28 12:14:16;;;;;;;4.78;1.50;;;18.70;99.90;;;;;;5073397;28;20209;-71
2021/03/28 12:17:15;;;;;;;4.75;1.90;;;18.90;99.90;;;;;;5072837;28;20202;-73
2021/03/28 12:19:47;;;;;;;9.88;2.58;;;18.80;99.90;;;;;;5068226;28;20263;-73
2021/03/28 12:22:18;;;;;;;5.78;2.22;;;18.90;99.90;;;;;;5072868;28;20256;-73
2021/03/28 12:24:47;;;;;;;3.50;2.00;;;19.00;99.90;;;;;;5072747;28;20268;-74
2021/03/28 12:27:27;;;;;;;7.72;2.13;;;19.30;99.90;;;;;;5071833;28;20574;-72
2021/03/28 12:29:55;;;;;;;4.05;1.98;;;19.20;99.90;;;;;;5070200;28;20206;-73
2021/03/28 12:32:54;;;;;;;4.00;1.92;;;19.50;99.90;;;;;;5072809;28;20202;-72
2021/03/28 12:35:29;;;;;;;4.57;3.55;;;19.90;99.90;;;;;;5072580;28;20209;-73
2021/03/28 12:37:57;;;;;;;3.13;2.03;;;19.60;99.90;;;;;;5072293;28;20292;-73
2021/03/28 12:40:37;;;;;;;6.93;2.75;;;19.60;99.90;;;;;;5073130;28;20217;-73
2021/03/28 12:43:18;;;;;;;4.95;2.08;;;20.00;99.90;;;;;;5071710;28;20198;-73
2021/03/28 12:45:45;;;;;;;5.65;2.10;;;19.60;99.90;;;;;;5072260;28;20610;-71
2021/03/28 12:48:34;;;;;;;8.43;5.28;;;19.70;99.90;;;;;;5071728;28;20218;-72
2021/03/28 12:51:01;;;;;;;7.45;5.65;;;19.50;99.90;;;;;;5071444;28;20209;-72
2021/03/28 12:53:33;;;;;;;4.00;3.35;;;19.60;99.90;;;;;;5069537;28;20297;-72
2021/03/28 12:56:01;;;;;;;4.68;2.95;;;19.80;99.90;;;;;;5071728;28;20202;-72
2021/03/28 12:58:42;;;;;;;4.50;2.83;;;19.80;99.90;;;;;;5072748;28;20210;-72
2021/03/28 13:01:28;;;;;;;7.38;3.00;;;19.80;99.90;;;;;;5072598;28;20208;-71
2021/03/28 13:04:07;;;;;;;5.97;2.22;;;19.70;99.90;;;;;;5068859;28;20198;-72
2021/03/28 13:06:44;;;;;;;5.72;2.38;;;20.00;99.90;;;;;;5071114;28;20234;-72
2021/03/28 13:09:32;;;;;;;8.43;2.20;;;19.90;99.90;;;;;;5070466;28;20202;-72
2021/03/28 13:12:18;;;;;;;1.98;1.70;;;20.00;99.90;;;;;;5072283;28;20302;-76
2021/03/28 13:14:47;;;;;;;3.60;2.20;;;20.00;99.90;;;;;;5071512;28;20260;-72
2021/03/28 13:17:34;;;;;;;3.72;2.30;;;19.90;99.90;;;;;;5072169;28;20240;-73
2021/03/28 13:20:19;;;;;;;4.53;2.22;;;20.00;99.90;;;;;;5072427;28;20205;-73
2021/03/28 13:22:48;;;;;;;3.85;2.13;;;19.90;99.90;;;;;;5069416;28;20576;-73
2021/03/28 13:25:29;;;;;;;7.78;2.83;;;20.20;99.90;;;;;;5071345;28;20237;-72
2021/03/28 13:28:23;;;;;;;5.18;2.78;;;20.20;99.90;;;;;;5063680;28;20669;-73
2021/03/28 13:30:51;;;;;;;3.80;2.42;;;20.00;99.90;;;;;;5069003;28;20209;-73
2021/03/28 13:33:36;;;;;;;4.70;1.85;;;20.30;99.90;;;;;;5071427;28;20582;-73
2021/03/28 13:36:17;;;;;;;4.53;3.10;;;20.40;99.90;;;;;;5071227;28;20213;-73
2021/03/28 13:38:57;;;;;;;3.10;2.33;;;20.40;99.90;;;;;;5071620;28;20214;-75
2021/03/28 13:41:28;;;;;;;3.25;2.42;;;20.40;99.90;;;;;;5071552;28;20327;-73
2021/03/28 13:44:04;;;;;;;6.15;2.50;;;20.20;99.90;;;;;;5071230;28;20206;-74
2021/03/28 13:46:32;;;;;;;4.13;2.58;;;20.20;99.90;;;;;;5071257;28;20279;-73
2021/03/28 13:49:04;;;;;;;8.38;3.03;;;20.20;99.90;;;;;;5071425;28;20264;-73
2021/03/28 13:51:32;;;;;;;4.05;2.17;;;20.40;99.90;;;;;;5070950;28;20210;-72
2021/03/28 13:54:05;;;;;;;5.28;2.70;;;20.50;99.90;;;;;;5071723;28;20206;-72
2021/03/28 13:56:41;;;;;;;6.03;2.38;;;20.60;99.90;;;;;;5071233;28;20678;-73
2021/03/28 13:59:13;;;;;;;16.13;14.50;;;20.40;99.90;;;;;;5071182;28;20293;-72
2021/03/28 14:01:54;;;;;;;10.68;6.72;;;20.50;99.90;;;;;;5066189;28;20701;-73
2021/03/28 14:04:39;;;;;;;20.60;15.45;;;20.50;99.90;;;;;;5070586;28;20209;-72
2021/03/28 14:07:17;;;;;;;7.78;4.32;;;20.60;99.90;;;;;;5070657;28;20701;-73
2021/03/28 14:09:48;;;;;;;5.80;3.53;;;20.80;99.90;;;;;;5070830;28;20210;-72
2021/03/28 14:12:30;;;;;;;2.97;2.47;;;20.80;99.90;;;;;;5070906;28;20206;-73
2021/03/28 14:15:21;;;;;;;8.70;2.85;;;20.80;99.90;;;;;;5063239;28;20206;-73
2021/03/28 14:17:54;;;;;;;7.82;3.50;;;20.70;99.90;;;;;;5069192;28;20673;-75
2021/03/28 14:20:24;;;;;;;4.38;2.58;;;20.60;99.90;;;;;;5067455;28;20214;-76
2021/03/28 14:22:54;;;;;;;3.65;2.95;;;20.70;99.90;;;;;;5070202;28;20205;-73
2021/03/28 14:25:32;;;;;;;7.85;4.28;;;21.10;99.90;;;;;;5070259;28;20313;-73
2021/03/28 14:28:00;;;;;;;7.60;3.15;;;21.00;99.90;;;;;;5070840;28;20560;-72
2021/03/28 14:30:33;;;;;;;6.10;2.92;;;21.00;99.90;;;;;;5070253;28;20217;-74
2021/03/28 14:33:06;;;;;;;5.78;2.60;;;20.60;99.90;;;;;;5070937;28;20566;-72
2021/03/28 14:35:47;;;;;;;3.63;2.40;;;20.80;99.90;;;;;;5070472;28;20209;-72